sensor_id;sensor_type;location;lat;lon;timestamp;temperature;humidity
19302;DHT22;9785;59.362;12.152;2023-12-07T00:02:27;-8.00;99.90
19302;DHT22;9785;59.362;12.152;2023-12-07T00:04:55;-7.70;99.90
19302;DHT22;9785;59.362;12.152;2023-12-07T00:07:23;-7.80;99.90
19302;DHT22;9785;59.362;12.152;2023-12-07T00:09:52;-7.80;99.90
19302;DHT22;9785;59.362;12.152;2023-12-07T00:12:21;-7.70;99.90
19302;DHT22;9785;59.362;12.152;2023-12-07T00:14:50;-7.70;99.90
19302;DHT22;9785;59.362;12.152;2023-12-07T00:17:19;-7.60;99.90
19302;DHT22;9785;59.362;12.152;2023-12-07T00:19:50;-7.50;99.90
19302;DHT22;9785;59.362;12.152;2023-12-07T00:22:20;-7.40;99.90
19302;DHT22;9785;59.362;12.152;2023-12-07T00:24:52;-7.40;99.90
19302;DHT22;9785;59.362;12.152;2023-12-07T00:27:22;-7.20;99.90
19302;DHT22;9785;59.362;12.152;2023-12-07T00:29:51;-7.00;99.90
19302;DHT22;9785;59.362;12.152;2023-12-07T00:32:19;-6.80;99.90
19302;DHT22;9785;59.362;12.152;2023-12-07T00:34:48;-6.80;99.90
19302;DHT22;9785;59.362;12.152;2023-12-07T00:37:17;-6.80;99.90
19302;DHT22;9785;59.362;12.152;2023-12-07T00:39:45;-6.80;99.90
19302;DHT22;9785;59.362;12.152;2023-12-07T00:42:14;-6.80;99.90
19302;DHT22;9785;59.362;12.152;2023-12-07T00:44:43;-6.80;99.90
19302;DHT22;9785;59.362;12.152;2023-12-07T00:47:12;-6.80;99.90
19302;DHT22;9785;59.362;12.152;2023-12-07T00:49:40;-6.70;99.90
19302;DHT22;9785;59.362;12.152;2023-12-07T00:52:08;-6.70;99.90
19302;DHT22;9785;59.362;12.152;2023-12-07T00:54:37;-6.70;99.90
19302;DHT22;9785;59.362;12.152;2023-12-07T00:57:06;-6.60;99.90
19302;DHT22;9785;59.362;12.152;2023-12-07T00:59:34;-6.50;99.90
19302;DHT22;9785;59.362;12.152;2023-12-07T01:02:05;-6.60;99.90
19302;DHT22;9785;59.362;12.152;2023-12-07T01:04:33;-6.60;99.90
19302;DHT22;9785;59.362;12.152;2023-12-07T01:07:02;-6.60;99.90
19302;DHT22;9785;59.362;12.152;2023-12-07T01:09:31;-6.40;99.90
19302;DHT22;9785;59.362;12.152;2023-12-07T01:12:00;-6.50;99.90
19302;DHT22;9785;59.362;12.152;2023-12-07T01:14:28;-6.50;99.90
19302;DHT22;9785;59.362;12.152;2023-12-07T01:16:56;-6.50;99.90
19302;DHT22;9785;59.362;12.152;2023-12-07T01:19:26;-6.60;99.90
19302;DHT22;9785;59.362;12.152;2023-12-07T01:21:54;-6.50;99.90
19302;DHT22;9785;59.362;12.152;2023-12-07T01:24:23;-6.60;99.90
19302;DHT22;9785;59.362;12.152;2023-12-07T01:26:52;-6.60;99.90
19302;DHT22;9785;59.362;12.152;2023-12-07T01:29:20;-6.50;99.90
19302;DHT22;9785;59.362;12.152;2023-12-07T01:31:50;-6.60;99.90
19302;DHT22;9785;59.362;12.152;2023-12-07T01:34:18;-6.70;99.90
19302;DHT22;9785;59.362;12.152;2023-12-07T01:36:48;-6.60;99.90
19302;DHT22;9785;59.362;12.152;2023-12-07T01:39:16;-6.70;99.90
19302;DHT22;9785;59.362;12.152;2023-12-07T01:41:45;-6.70;99.90
19302;DHT22;9785;59.362;12.152;2023-12-07T01:44:13;-6.70;99.90
19302;DHT22;9785;59.362;12.152;2023-12-07T01:46:41;-6.70;99.90
19302;DHT22;9785;59.362;12.152;2023-12-07T01:49:10;-6.60;99.90
19302;DHT22;9785;59.362;12.152;2023-12-07T01:51:39;-6.60;99.90
19302;DHT22;9785;59.362;12.152;2023-12-07T01:54:08;-6.60;99.90
19302;DHT22;9785;59.362;12.152;2023-12-07T01:56:37;-6.50;99.90
19302;DHT22;9785;59.362;12.152;2023-12-07T01:59:05;-6.50;99.90
19302;DHT22;9785;59.362;12.152;2023-12-07T02:01:34;-6.50;99.90
19302;DHT22;9785;59.362;12.152;2023-12-07T02:04:03;-6.50;99.90
19302;DHT22;9785;59.362;12.152;2023-12-07T02:06:31;-6.50;99.90
19302;DHT22;9785;59.362;12.152;2023-12-07T02:09:00;-6.50;99.90
19302;DHT22;9785;59.362;12.152;2023-12-07T02:11:30;-6.50;99.90
19302;DHT22;9785;59.362;12.152;2023-12-07T02:14:00;-6.40;99.90
19302;DHT22;9785;59.362;12.152;2023-12-07T02:16:31;-6.40;99.90
19302;DHT22;9785;59.362;12.152;2023-12-07T02:19:08;-6.50;99.90
19302;DHT22;9785;59.362;12.152;2023-12-07T02:21:46;-6.50;99.90
19302;DHT22;9785;59.362;12.152;2023-12-07T02:24:20;-6.60;99.90
19302;DHT22;9785;59.362;12.152;2023-12-07T02:26:50;-6.50;99.90
19302;DHT22;9785;59.362;12.152;2023-12-07T02:29:18;-6.50;99.90
19302;DHT22;9785;59.362;12.152;2023-12-07T02:31:47;-6.50;99.90
19302;DHT22;9785;59.362;12.152;2023-12-07T02:34:16;-6.60;99.90
19302;DHT22;9785;59.362;12.152;2023-12-07T02:36:47;-6.60;99.90
19302;DHT22;9785;59.362;12.152;2023-12-07T02:39:17;-6.60;99.90
19302;DHT22;9785;59.362;12.152;2023-12-07T02:41:45;-6.60;99.90
19302;DHT22;9785;59.362;12.152;2023-12-07T02:44:16;-6.60;99.90
19302;DHT22;9785;59.362;12.152;2023-12-07T02:46:45;-6.50;99.90
19302;DHT22;9785;59.362;12.152;2023-12-07T02:49:13;-6.50;99.90
19302;DHT22;9785;59.362;12.152;2023-12-07T02:51:42;-6.50;99.90
19302;DHT22;9785;59.362;12.152;2023-12-07T02:54:10;-6.50;99.90
19302;DHT22;9785;59.362;12.152;2023-12-07T02:56:38;-6.60;99.90
19302;DHT22;9785;59.362;12.152;2023-12-07T02:59:07;-6.50;99.90
19302;DHT22;9785;59.362;12.152;2023-12-07T03:01:37;-6.50;99.90
19302;DHT22;9785;59.362;12.152;2023-12-07T03:04:05;-6.50;99.90
19302;DHT22;9785;59.362;12.152;2023-12-07T03:06:33;-6.50;99.90
19302;DHT22;9785;59.362;12.152;2023-12-07T03:09:02;-6.50;99.90
19302;DHT22;9785;59.362;12.152;2023-12-07T03:11:30;-6.50;99.90
19302;DHT22;9785;59.362;12.152;2023-12-07T03:13:59;-6.50;99.90
19302;DHT22;9785;59.362;12.152;2023-12-07T03:16:27;-6.50;99.90
19302;DHT22;9785;59.362;12.152;2023-12-07T03:18:57;-6.40;99.90
19302;DHT22;9785;59.362;12.152;2023-12-07T03:21:25;-6.40;99.90
19302;DHT22;9785;59.362;12.152;2023-12-07T03:23:53;-6.30;99.90
19302;DHT22;9785;59.362;12.152;2023-12-07T03:26:22;-6.30;99.90
19302;DHT22;9785;59.362;12.152;2023-12-07T03:28:50;-6.30;99.90
19302;DHT22;9785;59.362;12.152;2023-12-07T03:31:17;-6.20;99.90
19302;DHT22;9785;59.362;12.152;2023-12-07T03:33:46;-6.10;99.90
19302;DHT22;9785;59.362;12.152;2023-12-07T03:36:15;-6.10;99.90
19302;DHT22;9785;59.362;12.152;2023-12-07T03:38:44;-6.10;99.90
19302;DHT22;9785;59.362;12.152;2023-12-07T03:41:12;-6.10;99.90
19302;DHT22;9785;59.362;12.152;2023-12-07T03:43:40;-6.00;99.90
19302;DHT22;9785;59.362;12.152;2023-12-07T03:46:09;-6.00;99.90
19302;DHT22;9785;59.362;12.152;2023-12-07T03:48:37;-6.00;99.90
19302;DHT22;9785;59.362;12.152;2023-12-07T03:51:05;-5.90;99.90
19302;DHT22;9785;59.362;12.152;2023-12-07T03:53:35;-5.80;99.90
19302;DHT22;9785;59.362;12.152;2023-12-07T03:56:04;-5.90;99.90
19302;DHT22;9785;59.362;12.152;2023-12-07T03:58:33;-5.80;99.90
19302;DHT22;9785;59.362;12.152;2023-12-07T04:01:01;-5.80;99.90
19302;DHT22;9785;59.362;12.152;2023-12-07T04:03:32;-5.80;99.90
19302;DHT22;9785;59.362;12.152;2023-12-07T04:06:01;-5.80;99.90
19302;DHT22;9785;59.362;12.152;2023-12-07T04:08:30;-5.90;99.90
19302;DHT22;9785;59.362;12.152;2023-12-07T04:11:00;-5.70;99.90
19302;DHT22;9785;59.362;12.152;2023-12-07T04:13:28;-5.80;99.90
19302;DHT22;9785;59.362;12.152;2023-12-07T04:15:57;-5.80;99.90
19302;DHT22;9785;59.362;12.152;2023-12-07T04:18:25;-5.80;99.90
19302;DHT22;9785;59.362;12.152;2023-12-07T04:20:53;-5.80;99.90
19302;DHT22;9785;59.362;12.152;2023-12-07T04:23:21;-5.70;99.90
19302;DHT22;9785;59.362;12.152;2023-12-07T04:25:50;-5.70;99.90
19302;DHT22;9785;59.362;12.152;2023-12-07T04:28:20;-5.80;99.90
19302;DHT22;9785;59.362;12.152;2023-12-07T04:30:48;-5.70;99.90
19302;DHT22;9785;59.362;12.152;2023-12-07T04:33:16;-5.70;99.90
19302;DHT22;9785;59.362;12.152;2023-12-07T04:35:45;-5.80;99.90
19302;DHT22;9785;59.362;12.152;2023-12-07T04:38:13;-5.80;99.90
19302;DHT22;9785;59.362;12.152;2023-12-07T04:40:41;-5.70;99.90
19302;DHT22;9785;59.362;12.152;2023-12-07T04:43:10;-5.80;99.90
19302;DHT22;9785;59.362;12.152;2023-12-07T04:45:39;-5.70;99.90
19302;DHT22;9785;59.362;12.152;2023-12-07T04:48:08;-5.70;99.90
19302;DHT22;9785;59.362;12.152;2023-12-07T04:50:37;-5.60;99.90
19302;DHT22;9785;59.362;12.152;2023-12-07T04:53:05;-5.70;99.90
19302;DHT22;9785;59.362;12.152;2023-12-07T04:55:33;-5.60;99.90
19302;DHT22;9785;59.362;12.152;2023-12-07T04:58:02;-5.70;99.90
19302;DHT22;9785;59.362;12.152;2023-12-07T05:00:31;-5.70;99.90
19302;DHT22;9785;59.362;12.152;2023-12-07T05:03:00;-5.70;99.90
19302;DHT22;9785;59.362;12.152;2023-12-07T05:05:29;-5.60;99.90
19302;DHT22;9785;59.362;12.152;2023-12-07T05:07:58;-5.70;99.90
19302;DHT22;9785;59.362;12.152;2023-12-07T05:10:26;-5.60;99.90
19302;DHT22;9785;59.362;12.152;2023-12-07T05:12:54;-5.70;99.90
19302;DHT22;9785;59.362;12.152;2023-12-07T05:15:24;-5.70;99.90
19302;DHT22;9785;59.362;12.152;2023-12-07T05:17:52;-5.60;99.90
19302;DHT22;9785;59.362;12.152;2023-12-07T05:20:22;-5.70;99.90
19302;DHT22;9785;59.362;12.152;2023-12-07T05:22:51;-5.60;99.90
19302;DHT22;9785;59.362;12.152;2023-12-07T05:25:19;-5.60;99.90
19302;DHT22;9785;59.362;12.152;2023-12-07T05:27:47;-5.60;99.90
19302;DHT22;9785;59.362;12.152;2023-12-07T05:30:16;-5.70;99.90
19302;DHT22;9785;59.362;12.152;2023-12-07T05:32:44;-5.60;99.90
19302;DHT22;9785;59.362;12.152;2023-12-07T05:35:12;-5.60;99.90
19302;DHT22;9785;59.362;12.152;2023-12-07T05:37:42;-5.60;99.90
19302;DHT22;9785;59.362;12.152;2023-12-07T05:40:11;-5.60;99.90
19302;DHT22;9785;59.362;12.152;2023-12-07T05:42:39;-5.60;99.90
19302;DHT22;9785;59.362;12.152;2023-12-07T05:45:08;-5.70;99.90
19302;DHT22;9785;59.362;12.152;2023-12-07T05:47:37;-5.60;99.90
19302;DHT22;9785;59.362;12.152;2023-12-07T05:50:06;-5.60;99.90
19302;DHT22;9785;59.362;12.152;2023-12-07T05:52:35;-5.60;99.90
19302;DHT22;9785;59.362;12.152;2023-12-07T05:55:06;-5.60;99.90
19302;DHT22;9785;59.362;12.152;2023-12-07T05:57:34;-5.60;99.90
19302;DHT22;9785;59.362;12.152;2023-12-07T06:00:04;-5.60;99.90
19302;DHT22;9785;59.362;12.152;2023-12-07T06:02:36;-5.60;99.90
19302;DHT22;9785;59.362;12.152;2023-12-07T06:05:04;-5.50;99.90
19302;DHT22;9785;59.362;12.152;2023-12-07T06:07:33;-5.50;99.90
19302;DHT22;9785;59.362;12.152;2023-12-07T06:10:02;-5.60;99.90
19302;DHT22;9785;59.362;12.152;2023-12-07T06:12:33;-5.60;99.90
19302;DHT22;9785;59.362;12.152;2023-12-07T06:15:02;-5.70;99.90
19302;DHT22;9785;59.362;12.152;2023-12-07T06:17:30;-5.70;99.90
19302;DHT22;9785;59.362;12.152;2023-12-07T06:19:59;-5.60;99.90
19302;DHT22;9785;59.362;12.152;2023-12-07T06:22:27;-5.60;99.90
19302;DHT22;9785;59.362;12.152;2023-12-07T06:24:56;-5.60;99.90
19302;DHT22;9785;59.362;12.152;2023-12-07T06:27:25;-5.60;99.90
19302;DHT22;9785;59.362;12.152;2023-12-07T06:29:54;-5.60;99.90
19302;DHT22;9785;59.362;12.152;2023-12-07T06:32:22;-5.60;99.90
19302;DHT22;9785;59.362;12.152;2023-12-07T06:34:51;-5.60;99.90
19302;DHT22;9785;59.362;12.152;2023-12-07T06:37:21;-5.60;99.90
19302;DHT22;9785;59.362;12.152;2023-12-07T06:39:49;-5.60;99.90
19302;DHT22;9785;59.362;12.152;2023-12-07T06:42:17;-5.60;99.90
19302;DHT22;9785;59.362;12.152;2023-12-07T06:44:46;-5.60;99.90
19302;DHT22;9785;59.362;12.152;2023-12-07T06:47:17;-5.50;99.90
19302;DHT22;9785;59.362;12.152;2023-12-07T06:49:45;-5.50;99.90
19302;DHT22;9785;59.362;12.152;2023-12-07T06:52:19;-5.60;99.90
19302;DHT22;9785;59.362;12.152;2023-12-07T06:54:47;-5.60;99.90
19302;DHT22;9785;59.362;12.152;2023-12-07T06:57:16;-5.50;99.90
19302;DHT22;9785;59.362;12.152;2023-12-07T06:59:44;-5.60;99.90
19302;DHT22;9785;59.362;12.152;2023-12-07T07:02:13;-5.60;99.90
19302;DHT22;9785;59.362;12.152;2023-12-07T07:04:43;-5.60;99.90
19302;DHT22;9785;59.362;12.152;2023-12-07T07:07:11;-5.50;99.90
19302;DHT22;9785;59.362;12.152;2023-12-07T07:09:40;-5.60;99.90
19302;DHT22;9785;59.362;12.152;2023-12-07T07:12:09;-5.60;99.90
19302;DHT22;9785;59.362;12.152;2023-12-07T07:14:38;-5.50;99.90
19302;DHT22;9785;59.362;12.152;2023-12-07T07:17:06;-5.50;99.90
19302;DHT22;9785;59.362;12.152;2023-12-07T07:19:35;-5.60;99.90
19302;DHT22;9785;59.362;12.152;2023-12-07T07:22:04;-5.60;99.90
19302;DHT22;9785;59.362;12.152;2023-12-07T07:24:33;-5.60;99.90
19302;DHT22;9785;59.362;12.152;2023-12-07T07:27:01;-5.60;99.90
19302;DHT22;9785;59.362;12.152;2023-12-07T07:29:30;-5.60;99.90
19302;DHT22;9785;59.362;12.152;2023-12-07T07:31:59;-5.70;99.90
19302;DHT22;9785;59.362;12.152;2023-12-07T07:34:28;-5.60;99.90
19302;DHT22;9785;59.362;12.152;2023-12-07T07:36:56;-5.70;99.90
19302;DHT22;9785;59.362;12.152;2023-12-07T07:39:26;-5.60;99.90
19302;DHT22;9785;59.362;12.152;2023-12-07T07:41:54;-5.70;99.90
19302;DHT22;9785;59.362;12.152;2023-12-07T07:44:23;-5.60;99.90
19302;DHT22;9785;59.362;12.152;2023-12-07T07:46:51;-5.60;99.90
19302;DHT22;9785;59.362;12.152;2023-12-07T07:49:19;-5.60;99.90
19302;DHT22;9785;59.362;12.152;2023-12-07T07:51:47;-5.50;99.90
19302;DHT22;9785;59.362;12.152;2023-12-07T07:54:16;-5.50;99.90
19302;DHT22;9785;59.362;12.152;2023-12-07T07:56:45;-5.50;99.90
19302;DHT22;9785;59.362;12.152;2023-12-07T07:59:14;-5.50;99.90
19302;DHT22;9785;59.362;12.152;2023-12-07T08:01:43;-5.50;99.90
19302;DHT22;9785;59.362;12.152;2023-12-07T08:04:11;-5.50;99.90
19302;DHT22;9785;59.362;12.152;2023-12-07T08:06:40;-5.50;99.90
19302;DHT22;9785;59.362;12.152;2023-12-07T08:09:08;-5.40;99.90
19302;DHT22;9785;59.362;12.152;2023-12-07T08:11:37;-5.30;99.90
19302;DHT22;9785;59.362;12.152;2023-12-07T08:14:07;-5.30;99.90
19302;DHT22;9785;59.362;12.152;2023-12-07T08:16:35;-5.30;99.90
19302;DHT22;9785;59.362;12.152;2023-12-07T08:19:03;-5.40;99.90
19302;DHT22;9785;59.362;12.152;2023-12-07T08:21:32;-5.40;99.90
19302;DHT22;9785;59.362;12.152;2023-12-07T08:24:00;-5.30;99.90
19302;DHT22;9785;59.362;12.152;2023-12-07T08:26:28;-5.30;99.90
19302;DHT22;9785;59.362;12.152;2023-12-07T08:28:56;-5.20;99.90
19302;DHT22;9785;59.362;12.152;2023-12-07T08:31:26;-5.20;99.90
19302;DHT22;9785;59.362;12.152;2023-12-07T08:33:55;-5.10;99.90
19302;DHT22;9785;59.362;12.152;2023-12-07T08:36:24;-5.10;99.90
19302;DHT22;9785;59.362;12.152;2023-12-07T08:38:52;-5.10;99.90
19302;DHT22;9785;59.362;12.152;2023-12-07T08:41:21;-5.00;99.90
19302;DHT22;9785;59.362;12.152;2023-12-07T08:43:49;-5.00;99.90
19302;DHT22;9785;59.362;12.152;2023-12-07T08:46:17;-5.00;99.90
19302;DHT22;9785;59.362;12.152;2023-12-07T08:48:48;-4.90;99.90
19302;DHT22;9785;59.362;12.152;2023-12-07T08:51:17;-4.90;99.90
19302;DHT22;9785;59.362;12.152;2023-12-07T08:53:47;-4.90;99.90
19302;DHT22;9785;59.362;12.152;2023-12-07T08:56:20;-4.90;99.90
19302;DHT22;9785;59.362;12.152;2023-12-07T08:58:48;-4.80;99.90
19302;DHT22;9785;59.362;12.152;2023-12-07T09:01:18;-4.80;99.90
19302;DHT22;9785;59.362;12.152;2023-12-07T09:03:59;-4.80;99.90
19302;DHT22;9785;59.362;12.152;2023-12-07T09:06:28;-4.90;99.90
19302;DHT22;9785;59.362;12.152;2023-12-07T09:08:56;-4.80;99.90
19302;DHT22;9785;59.362;12.152;2023-12-07T09:11:25;-4.60;99.90
19302;DHT22;9785;59.362;12.152;2023-12-07T09:13:53;-4.60;99.90
19302;DHT22;9785;59.362;12.152;2023-12-07T09:16:21;-4.60;99.90
19302;DHT22;9785;59.362;12.152;2023-12-07T09:18:50;-4.50;99.90
19302;DHT22;9785;59.362;12.152;2023-12-07T09:21:20;-4.50;99.90
19302;DHT22;9785;59.362;12.152;2023-12-07T09:23:50;-4.50;99.90
19302;DHT22;9785;59.362;12.152;2023-12-07T09:26:19;-4.40;99.90
19302;DHT22;9785;59.362;12.152;2023-12-07T09:28:47;-4.40;99.90
19302;DHT22;9785;59.362;12.152;2023-12-07T09:31:16;-4.30;99.90
19302;DHT22;9785;59.362;12.152;2023-12-07T09:33:44;-4.40;99.90
19302;DHT22;9785;59.362;12.152;2023-12-07T09:36:16;-4.30;99.90
19302;DHT22;9785;59.362;12.152;2023-12-07T09:38:47;-4.40;99.90
19302;DHT22;9785;59.362;12.152;2023-12-07T09:41:15;-4.30;99.90
19302;DHT22;9785;59.362;12.152;2023-12-07T09:43:44;-4.20;99.90
19302;DHT22;9785;59.362;12.152;2023-12-07T09:46:14;-4.20;99.90
19302;DHT22;9785;59.362;12.152;2023-12-07T09:48:43;-4.20;99.90
19302;DHT22;9785;59.362;12.152;2023-12-07T09:51:12;-4.20;99.90
19302;DHT22;9785;59.362;12.152;2023-12-07T09:53:42;-4.20;99.90
19302;DHT22;9785;59.362;12.152;2023-12-07T09:56:13;-4.10;99.90
19302;DHT22;9785;59.362;12.152;2023-12-07T09:58:41;-4.10;99.90
19302;DHT22;9785;59.362;12.152;2023-12-07T10:01:10;-4.00;99.90
19302;DHT22;9785;59.362;12.152;2023-12-07T10:03:42;-4.00;99.90
19302;DHT22;9785;59.362;12.152;2023-12-07T10:06:14;-3.90;99.90
19302;DHT22;9785;59.362;12.152;2023-12-07T10:08:43;-3.90;99.90
19302;DHT22;9785;59.362;12.152;2023-12-07T10:11:15;-3.80;99.90
19302;DHT22;9785;59.362;12.152;2023-12-07T10:13:45;-3.90;99.90
19302;DHT22;9785;59.362;12.152;2023-12-07T10:16:15;-3.90;99.90
19302;DHT22;9785;59.362;12.152;2023-12-07T10:18:46;-3.80;99.90
19302;DHT22;9785;59.362;12.152;2023-12-07T10:21:31;-3.90;99.90
19302;DHT22;9785;59.362;12.152;2023-12-07T10:24:00;-3.90;99.90
19302;DHT22;9785;59.362;12.152;2023-12-07T10:26:31;-3.70;99.90
19302;DHT22;9785;59.362;12.152;2023-12-07T10:29:04;-3.60;99.90
19302;DHT22;9785;59.362;12.152;2023-12-07T10:31:37;-3.80;99.90
19302;DHT22;9785;59.362;12.152;2023-12-07T10:34:06;-3.70;99.90
19302;DHT22;9785;59.362;12.152;2023-12-07T10:36:35;-3.80;99.90
19302;DHT22;9785;59.362;12.152;2023-12-07T10:39:07;-3.70;99.90
19302;DHT22;9785;59.362;12.152;2023-12-07T10:41:49;-3.70;99.90
19302;DHT22;9785;59.362;12.152;2023-12-07T10:44:22;-3.60;99.90
19302;DHT22;9785;59.362;12.152;2023-12-07T10:46:55;-3.60;99.90
19302;DHT22;9785;59.362;12.152;2023-12-07T10:49:27;-3.50;99.90
19302;DHT22;9785;59.362;12.152;2023-12-07T10:52:07;-3.60;99.90
19302;DHT22;9785;59.362;12.152;2023-12-07T10:54:41;-3.70;99.90
19302;DHT22;9785;59.362;12.152;2023-12-07T10:57:13;-3.70;99.90
19302;DHT22;9785;59.362;12.152;2023-12-07T10:59:43;-3.80;99.90
19302;DHT22;9785;59.362;12.152;2023-12-07T11:02:13;-3.70;99.90
19302;DHT22;9785;59.362;12.152;2023-12-07T11:04:45;-3.60;99.90
19302;DHT22;9785;59.362;12.152;2023-12-07T11:07:17;-3.60;99.90
19302;DHT22;9785;59.362;12.152;2023-12-07T11:09:53;-3.50;99.90
19302;DHT22;9785;59.362;12.152;2023-12-07T11:12:35;-3.60;99.90
19302;DHT22;9785;59.362;12.152;2023-12-07T11:15:07;-3.60;99.90
19302;DHT22;9785;59.362;12.152;2023-12-07T11:17:49;-3.50;99.90
19302;DHT22;9785;59.362;12.152;2023-12-07T11:20:21;-3.50;99.90
19302;DHT22;9785;59.362;12.152;2023-12-07T11:22:50;-3.40;99.90
19302;DHT22;9785;59.362;12.152;2023-12-07T11:25:20;-3.40;99.90
19302;DHT22;9785;59.362;12.152;2023-12-07T11:28:00;-3.50;99.90
19302;DHT22;9785;59.362;12.152;2023-12-07T11:30:33;-3.40;99.90
19302;DHT22;9785;59.362;12.152;2023-12-07T11:33:03;-3.40;99.90
19302;DHT22;9785;59.362;12.152;2023-12-07T11:35:32;-3.20;99.90
19302;DHT22;9785;59.362;12.152;2023-12-07T11:38:03;-3.20;99.90
19302;DHT22;9785;59.362;12.152;2023-12-07T11:40:36;-3.10;99.90
19302;DHT22;9785;59.362;12.152;2023-12-07T11:43:07;-3.20;99.90
19302;DHT22;9785;59.362;12.152;2023-12-07T11:45:39;-3.20;99.90
19302;DHT22;9785;59.362;12.152;2023-12-07T11:48:11;-3.20;99.90
19302;DHT22;9785;59.362;12.152;2023-12-07T11:50:54;-3.30;99.90
19302;DHT22;9785;59.362;12.152;2023-12-07T11:53:24;-3.20;99.90
19302;DHT22;9785;59.362;12.152;2023-12-07T11:55:53;-3.30;99.90
19302;DHT22;9785;59.362;12.152;2023-12-07T11:58:24;-3.40;99.90
19302;DHT22;9785;59.362;12.152;2023-12-07T12:00:53;-3.50;99.90
19302;DHT22;9785;59.362;12.152;2023-12-07T12:03:24;-3.50;99.90
19302;DHT22;9785;59.362;12.152;2023-12-07T12:05:52;-3.40;99.90
19302;DHT22;9785;59.362;12.152;2023-12-07T12:08:21;-3.50;99.90
19302;DHT22;9785;59.362;12.152;2023-12-07T12:10:50;-3.50;99.90
19302;DHT22;9785;59.362;12.152;2023-12-07T12:13:28;-3.40;99.90
19302;DHT22;9785;59.362;12.152;2023-12-07T12:15:57;-3.40;99.90
19302;DHT22;9785;59.362;12.152;2023-12-07T12:18:31;-3.30;99.90
19302;DHT22;9785;59.362;12.152;2023-12-07T12:21:00;-3.30;99.90
19302;DHT22;9785;59.362;12.152;2023-12-07T12:23:29;-3.40;99.90
19302;DHT22;9785;59.362;12.152;2023-12-07T12:25:58;-3.40;99.90
19302;DHT22;9785;59.362;12.152;2023-12-07T12:28:28;-3.40;99.90
19302;DHT22;9785;59.362;12.152;2023-12-07T12:31:02;-3.40;99.90
19302;DHT22;9785;59.362;12.152;2023-12-07T12:33:31;-3.40;99.90
19302;DHT22;9785;59.362;12.152;2023-12-07T12:36:02;-3.30;99.90
19302;DHT22;9785;59.362;12.152;2023-12-07T12:38:31;-3.30;99.90
19302;DHT22;9785;59.362;12.152;2023-12-07T12:41:09;-3.20;99.90
19302;DHT22;9785;59.362;12.152;2023-12-07T12:43:39;-3.30;99.90
19302;DHT22;9785;59.362;12.152;2023-12-07T12:46:08;-3.30;99.90
19302;DHT22;9785;59.362;12.152;2023-12-07T12:48:51;-3.20;99.90
19302;DHT22;9785;59.362;12.152;2023-12-07T12:51:20;-3.20;99.90
19302;DHT22;9785;59.362;12.152;2023-12-07T12:53:48;-3.20;99.90
19302;DHT22;9785;59.362;12.152;2023-12-07T12:56:19;-3.20;99.90
19302;DHT22;9785;59.362;12.152;2023-12-07T12:58:50;-3.10;99.90
19302;DHT22;9785;59.362;12.152;2023-12-07T13:01:19;-3.20;99.90
19302;DHT22;9785;59.362;12.152;2023-12-07T13:03:48;-3.30;99.90
19302;DHT22;9785;59.362;12.152;2023-12-07T13:06:17;-3.30;99.90
19302;DHT22;9785;59.362;12.152;2023-12-07T13:08:47;-3.20;99.90
19302;DHT22;9785;59.362;12.152;2023-12-07T13:11:16;-3.10;99.90
19302;DHT22;9785;59.362;12.152;2023-12-07T13:13:45;-3.20;99.90
19302;DHT22;9785;59.362;12.152;2023-12-07T13:16:17;-3.20;99.90
19302;DHT22;9785;59.362;12.152;2023-12-07T13:18:47;-3.30;99.90
19302;DHT22;9785;59.362;12.152;2023-12-07T13:21:15;-3.40;99.90
19302;DHT22;9785;59.362;12.152;2023-12-07T13:23:44;-3.40;99.90
19302;DHT22;9785;59.362;12.152;2023-12-07T13:26:13;-3.50;99.90
19302;DHT22;9785;59.362;12.152;2023-12-07T13:28:42;-3.60;99.90
19302;DHT22;9785;59.362;12.152;2023-12-07T13:31:10;-3.60;99.90
19302;DHT22;9785;59.362;12.152;2023-12-07T13:33:40;-3.60;99.90
19302;DHT22;9785;59.362;12.152;2023-12-07T13:36:21;-3.60;99.90
19302;DHT22;9785;59.362;12.152;2023-12-07T13:38:52;-3.60;99.90
19302;DHT22;9785;59.362;12.152;2023-12-07T13:41:21;-3.60;99.90
19302;DHT22;9785;59.362;12.152;2023-12-07T13:43:49;-3.60;99.90
19302;DHT22;9785;59.362;12.152;2023-12-07T13:46:18;-3.60;99.90
19302;DHT22;9785;59.362;12.152;2023-12-07T13:48:48;-3.70;99.90
19302;DHT22;9785;59.362;12.152;2023-12-07T13:51:17;-3.60;99.90
19302;DHT22;9785;59.362;12.152;2023-12-07T13:53:47;-3.70;99.90
19302;DHT22;9785;59.362;12.152;2023-12-07T13:56:16;-3.80;99.90
19302;DHT22;9785;59.362;12.152;2023-12-07T13:58:44;-3.80;99.90
19302;DHT22;9785;59.362;12.152;2023-12-07T14:01:13;-3.90;99.90
19302;DHT22;9785;59.362;12.152;2023-12-07T14:03:42;-3.80;99.90
19302;DHT22;9785;59.362;12.152;2023-12-07T14:06:19;-3.80;99.90
19302;DHT22;9785;59.362;12.152;2023-12-07T14:08:50;-3.90;99.90
19302;DHT22;9785;59.362;12.152;2023-12-07T14:11:19;-3.80;99.90
19302;DHT22;9785;59.362;12.152;2023-12-07T14:13:47;-3.80;99.90
19302;DHT22;9785;59.362;12.152;2023-12-07T14:16:21;-3.90;99.90
19302;DHT22;9785;59.362;12.152;2023-12-07T14:19:09;-3.90;99.90
19302;DHT22;9785;59.362;12.152;2023-12-07T14:21:42;-4.00;99.90
19302;DHT22;9785;59.362;12.152;2023-12-07T14:24:22;-4.00;99.90
19302;DHT22;9785;59.362;12.152;2023-12-07T14:26:50;-4.10;99.90
19302;DHT22;9785;59.362;12.152;2023-12-07T14:29:19;-4.10;99.90
19302;DHT22;9785;59.362;12.152;2023-12-07T14:31:53;-4.00;99.90
19302;DHT22;9785;59.362;12.152;2023-12-07T14:34:22;-4.10;99.90
19302;DHT22;9785;59.362;12.152;2023-12-07T14:37:03;-4.00;99.90
19302;DHT22;9785;59.362;12.152;2023-12-07T14:39:34;-4.20;99.90
19302;DHT22;9785;59.362;12.152;2023-12-07T14:42:03;-4.20;99.90
19302;DHT22;9785;59.362;12.152;2023-12-07T14:44:32;-4.30;99.90
19302;DHT22;9785;59.362;12.152;2023-12-07T14:47:01;-4.30;99.90
19302;DHT22;9785;59.362;12.152;2023-12-07T14:49:30;-4.40;99.90
19302;DHT22;9785;59.362;12.152;2023-12-07T14:51:59;-4.60;99.90
19302;DHT22;9785;59.362;12.152;2023-12-07T14:54:29;-4.60;99.90
19302;DHT22;9785;59.362;12.152;2023-12-07T14:56:58;-4.60;99.90
19302;DHT22;9785;59.362;12.152;2023-12-07T14:59:28;-4.80;99.90
19302;DHT22;9785;59.362;12.152;2023-12-07T15:01:56;-4.80;99.90
19302;DHT22;9785;59.362;12.152;2023-12-07T15:04:25;-5.00;99.90
19302;DHT22;9785;59.362;12.152;2023-12-07T15:07:00;-5.10;99.90
19302;DHT22;9785;59.362;12.152;2023-12-07T15:09:32;-5.00;99.90
19302;DHT22;9785;59.362;12.152;2023-12-07T15:12:02;-5.20;99.90
19302;DHT22;9785;59.362;12.152;2023-12-07T15:14:30;-5.30;99.90
19302;DHT22;9785;59.362;12.152;2023-12-07T15:17:05;-5.50;99.90
19302;DHT22;9785;59.362;12.152;2023-12-07T15:19:36;-5.50;99.90
19302;DHT22;9785;59.362;12.152;2023-12-07T15:22:05;-5.60;99.90
19302;DHT22;9785;59.362;12.152;2023-12-07T15:24:36;-5.60;99.90
19302;DHT22;9785;59.362;12.152;2023-12-07T15:27:07;-5.70;99.90
19302;DHT22;9785;59.362;12.152;2023-12-07T15:29:36;-5.80;99.90
19302;DHT22;9785;59.362;12.152;2023-12-07T15:32:06;-5.80;99.90
19302;DHT22;9785;59.362;12.152;2023-12-07T15:34:36;-5.90;99.90
19302;DHT22;9785;59.362;12.152;2023-12-07T15:37:09;-6.00;99.90
19302;DHT22;9785;59.362;12.152;2023-12-07T15:39:42;-6.00;99.90
19302;DHT22;9785;59.362;12.152;2023-12-07T15:42:11;-6.10;99.90
19302;DHT22;9785;59.362;12.152;2023-12-07T15:44:40;-6.10;99.90
19302;DHT22;9785;59.362;12.152;2023-12-07T15:47:08;-6.20;99.90